sensor_id;sensor_type;location;lat;lon;timestamp;temperature;humidity
7700;DHT22;3892;47.794;19.126;2022-08-01T00:02:06;24.10;42.60
7700;DHT22;3892;47.794;19.126;2022-08-01T00:04:33;24.10;42.50
7700;DHT22;3892;47.794;19.126;2022-08-01T00:07:00;24.10;42.50
7700;DHT22;3892;47.794;19.126;2022-08-01T00:09:27;24.10;42.60
7700;DHT22;3892;47.794;19.126;2022-08-01T00:11:54;24.10;42.60
7700;DHT22;3892;47.794;19.126;2022-08-01T00:14:22;24.10;42.60
7700;DHT22;3892;47.794;19.126;2022-08-01T00:16:49;24.00;43.10
7700;DHT22;3892;47.794;19.126;2022-08-01T00:19:16;24.00;42.60
7700;DHT22;3892;47.794;19.126;2022-08-01T00:21:43;24.00;42.60
7700;DHT22;3892;47.794;19.126;2022-08-01T00:24:10;24.00;42.80
7700;DHT22;3892;47.794;19.126;2022-08-01T00:26:36;24.00;42.90
7700;DHT22;3892;47.794;19.126;2022-08-01T00:29:03;24.00;42.80
7700;DHT22;3892;47.794;19.126;2022-08-01T00:31:32;24.00;42.70
7700;DHT22;3892;47.794;19.126;2022-08-01T00:33:59;24.10;42.90
7700;DHT22;3892;47.794;19.126;2022-08-01T00:36:25;24.10;42.70
7700;DHT22;3892;47.794;19.126;2022-08-01T00:38:52;24.10;42.70
7700;DHT22;3892;47.794;19.126;2022-08-01T00:41:19;24.10;42.80
7700;DHT22;3892;47.794;19.126;2022-08-01T00:43:46;24.00;43.00
7700;DHT22;3892;47.794;19.126;2022-08-01T00:46:13;24.00;43.30
7700;DHT22;3892;47.794;19.126;2022-08-01T00:48:41;23.90;43.40
7700;DHT22;3892;47.794;19.126;2022-08-01T00:51:08;23.80;43.60
7700;DHT22;3892;47.794;19.126;2022-08-01T00:53:35;23.80;43.80
7700;DHT22;3892;47.794;19.126;2022-08-01T00:56:03;23.80;43.90
7700;DHT22;3892;47.794;19.126;2022-08-01T00:58:30;23.80;44.10
7700;DHT22;3892;47.794;19.126;2022-08-01T01:00:58;23.80;44.20
7700;DHT22;3892;47.794;19.126;2022-08-01T01:03:24;23.80;44.30
7700;DHT22;3892;47.794;19.126;2022-08-01T01:06:00;23.80;44.30
7700;DHT22;3892;47.794;19.126;2022-08-01T01:08:35;23.90;44.40
7700;DHT22;3892;47.794;19.126;2022-08-01T01:11:08;23.90;44.40
7700;DHT22;3892;47.794;19.126;2022-08-01T01:13:41;23.90;44.30
7700;DHT22;3892;47.794;19.126;2022-08-01T01:16:13;23.90;44.40
7700;DHT22;3892;47.794;19.126;2022-08-01T01:18:44;23.90;44.40
7700;DHT22;3892;47.794;19.126;2022-08-01T01:21:26;23.90;44.60
7700;DHT22;3892;47.794;19.126;2022-08-01T01:24:02;24.00;44.70
7700;DHT22;3892;47.794;19.126;2022-08-01T01:26:37;24.00;44.50
7700;DHT22;3892;47.794;19.126;2022-08-01T01:29:13;23.90;44.60
7700;DHT22;3892;47.794;19.126;2022-08-01T01:31:44;23.90;44.70
7700;DHT22;3892;47.794;19.126;2022-08-01T01:34:14;23.90;44.70
7700;DHT22;3892;47.794;19.126;2022-08-01T01:36:43;23.90;44.80
7700;DHT22;3892;47.794;19.126;2022-08-01T01:39:11;23.80;44.60
7700;DHT22;3892;47.794;19.126;2022-08-01T01:41:40;23.80;44.70
7700;DHT22;3892;47.794;19.126;2022-08-01T01:44:10;23.80;44.60
7700;DHT22;3892;47.794;19.126;2022-08-01T01:46:39;23.70;44.50
7700;DHT22;3892;47.794;19.126;2022-08-01T01:49:07;23.80;44.70
7700;DHT22;3892;47.794;19.126;2022-08-01T01:51:38;23.70;44.50
7700;DHT22;3892;47.794;19.126;2022-08-01T01:54:06;23.60;44.50
7700;DHT22;3892;47.794;19.126;2022-08-01T01:56:35;23.60;44.60
7700;DHT22;3892;47.794;19.126;2022-08-01T01:59:18;23.60;44.70
7700;DHT22;3892;47.794;19.126;2022-08-01T02:01:47;23.60;44.70
7700;DHT22;3892;47.794;19.126;2022-08-01T02:04:16;23.50;44.60
7700;DHT22;3892;47.794;19.126;2022-08-01T02:06:45;23.50;44.70
7700;DHT22;3892;47.794;19.126;2022-08-01T02:09:14;23.40;44.70
7700;DHT22;3892;47.794;19.126;2022-08-01T02:11:44;23.40;44.80
7700;DHT22;3892;47.794;19.126;2022-08-01T02:14:12;23.40;44.80
7700;DHT22;3892;47.794;19.126;2022-08-01T02:16:44;23.40;44.80
7700;DHT22;3892;47.794;19.126;2022-08-01T02:19:12;23.40;44.80
7700;DHT22;3892;47.794;19.126;2022-08-01T02:21:44;23.40;44.80
7700;DHT22;3892;47.794;19.126;2022-08-01T02:24:14;23.50;44.80
7700;DHT22;3892;47.794;19.126;2022-08-01T02:26:46;23.40;44.70
7700;DHT22;3892;47.794;19.126;2022-08-01T02:29:19;23.40;44.80
7700;DHT22;3892;47.794;19.126;2022-08-01T02:31:52;23.40;44.80
7700;DHT22;3892;47.794;19.126;2022-08-01T02:34:21;23.40;44.80
7700;DHT22;3892;47.794;19.126;2022-08-01T02:36:49;23.40;44.80
7700;DHT22;3892;47.794;19.126;2022-08-01T02:39:19;23.40;44.80
7700;DHT22;3892;47.794;19.126;2022-08-01T02:41:50;23.40;44.80
7700;DHT22;3892;47.794;19.126;2022-08-01T02:44:24;23.40;44.80
7700;DHT22;3892;47.794;19.126;2022-08-01T02:46:58;23.40;44.80
7700;DHT22;3892;47.794;19.126;2022-08-01T02:49:30;23.40;44.80
7700;DHT22;3892;47.794;19.126;2022-08-01T02:52:00;23.50;44.90
7700;DHT22;3892;47.794;19.126;2022-08-01T02:54:29;23.50;44.80
7700;DHT22;3892;47.794;19.126;2022-08-01T02:56:58;23.50;44.90
7700;DHT22;3892;47.794;19.126;2022-08-01T02:59:26;23.60;45.10
7700;DHT22;3892;47.794;19.126;2022-08-01T03:01:58;23.60;44.90
7700;DHT22;3892;47.794;19.126;2022-08-01T03:04:27;23.60;44.80
7700;DHT22;3892;47.794;19.126;2022-08-01T03:06:56;23.60;44.90
7700;DHT22;3892;47.794;19.126;2022-08-01T03:09:25;23.60;44.90
7700;DHT22;3892;47.794;19.126;2022-08-01T03:11:54;23.60;44.90
7700;DHT22;3892;47.794;19.126;2022-08-01T03:14:24;23.60;45.00
7700;DHT22;3892;47.794;19.126;2022-08-01T03:16:52;23.60;45.00
7700;DHT22;3892;47.794;19.126;2022-08-01T03:19:22;23.60;45.10
7700;DHT22;3892;47.794;19.126;2022-08-01T03:21:51;23.60;45.10
7700;DHT22;3892;47.794;19.126;2022-08-01T03:24:19;23.60;45.10
7700;DHT22;3892;47.794;19.126;2022-08-01T03:26:46;23.60;45.10
7700;DHT22;3892;47.794;19.126;2022-08-01T03:29:16;23.60;45.10
7700;DHT22;3892;47.794;19.126;2022-08-01T03:31:45;23.70;45.40
7700;DHT22;3892;47.794;19.126;2022-08-01T03:34:12;23.60;45.30
7700;DHT22;3892;47.794;19.126;2022-08-01T03:36:45;23.70;45.20
7700;DHT22;3892;47.794;19.126;2022-08-01T03:39:13;23.60;45.50
7700;DHT22;3892;47.794;19.126;2022-08-01T03:41:45;23.60;45.50
7700;DHT22;3892;47.794;19.126;2022-08-01T03:44:14;23.50;45.50
7700;DHT22;3892;47.794;19.126;2022-08-01T03:46:45;23.50;45.70
7700;DHT22;3892;47.794;19.126;2022-08-01T03:49:17;23.50;45.70
7700;DHT22;3892;47.794;19.126;2022-08-01T03:51:49;23.50;45.80
7700;DHT22;3892;47.794;19.126;2022-08-01T03:54:20;23.60;45.90
7700;DHT22;3892;47.794;19.126;2022-08-01T03:56:48;23.60;45.80
7700;DHT22;3892;47.794;19.126;2022-08-01T03:59:17;23.60;45.70
7700;DHT22;3892;47.794;19.126;2022-08-01T04:01:45;23.70;45.80
7700;DHT22;3892;47.794;19.126;2022-08-01T04:04:13;23.70;45.90
7700;DHT22;3892;47.794;19.126;2022-08-01T04:06:41;23.70;45.80
7700;DHT22;3892;47.794;19.126;2022-08-01T04:09:11;23.70;45.80
7700;DHT22;3892;47.794;19.126;2022-08-01T04:11:38;23.80;46.50
7700;DHT22;3892;47.794;19.126;2022-08-01T04:14:05;23.70;45.70
7700;DHT22;3892;47.794;19.126;2022-08-01T04:16:32;23.70;45.90
7700;DHT22;3892;47.794;19.126;2022-08-01T04:18:59;23.60;45.90
7700;DHT22;3892;47.794;19.126;2022-08-01T04:21:29;23.40;46.20
7700;DHT22;3892;47.794;19.126;2022-08-01T04:24:00;23.40;46.30
7700;DHT22;3892;47.794;19.126;2022-08-01T04:26:30;23.30;46.20
7700;DHT22;3892;47.794;19.126;2022-08-01T04:29:00;23.30;46.40
7700;DHT22;3892;47.794;19.126;2022-08-01T04:31:29;23.20;46.50
7700;DHT22;3892;47.794;19.126;2022-08-01T04:33:58;23.20;47.20
7700;DHT22;3892;47.794;19.126;2022-08-01T04:36:26;23.10;46.60
7700;DHT22;3892;47.794;19.126;2022-08-01T04:38:59;23.10;46.70
7700;DHT22;3892;47.794;19.126;2022-08-01T04:41:26;23.20;46.70
7700;DHT22;3892;47.794;19.126;2022-08-01T04:43:56;23.20;46.90
7700;DHT22;3892;47.794;19.126;2022-08-01T04:46:24;23.20;46.80
7700;DHT22;3892;47.794;19.126;2022-08-01T04:48:51;23.20;46.90
7700;DHT22;3892;47.794;19.126;2022-08-01T04:51:20;23.30;46.90
7700;DHT22;3892;47.794;19.126;2022-08-01T04:53:48;23.30;47.00
7700;DHT22;3892;47.794;19.126;2022-08-01T04:56:16;23.30;47.10
7700;DHT22;3892;47.794;19.126;2022-08-01T04:58:44;23.30;47.00
7700;DHT22;3892;47.794;19.126;2022-08-01T05:01:13;23.40;47.00
7700;DHT22;3892;47.794;19.126;2022-08-01T05:03:40;23.40;47.00
7700;DHT22;3892;47.794;19.126;2022-08-01T05:06:07;23.50;47.20
7700;DHT22;3892;47.794;19.126;2022-08-01T05:08:34;23.50;47.00
7700;DHT22;3892;47.794;19.126;2022-08-01T05:11:01;23.50;47.00
7700;DHT22;3892;47.794;19.126;2022-08-01T05:13:28;23.50;47.00
7700;DHT22;3892;47.794;19.126;2022-08-01T05:15:55;23.50;47.10
7700;DHT22;3892;47.794;19.126;2022-08-01T05:18:24;23.50;47.20
7700;DHT22;3892;47.794;19.126;2022-08-01T05:20:52;23.50;47.10
7700;DHT22;3892;47.794;19.126;2022-08-01T05:23:19;23.50;47.10
7700;DHT22;3892;47.794;19.126;2022-08-01T05:25:46;23.50;47.30
7700;DHT22;3892;47.794;19.126;2022-08-01T05:28:14;23.60;47.50
7700;DHT22;3892;47.794;19.126;2022-08-01T05:30:41;23.60;47.00
7700;DHT22;3892;47.794;19.126;2022-08-01T05:33:08;23.60;47.00
7700;DHT22;3892;47.794;19.126;2022-08-01T05:35:36;23.70;47.00
7700;DHT22;3892;47.794;19.126;2022-08-01T05:38:03;23.70;47.00
7700;DHT22;3892;47.794;19.126;2022-08-01T05:40:30;23.70;46.70
7700;DHT22;3892;47.794;19.126;2022-08-01T05:42:57;23.70;46.60
7700;DHT22;3892;47.794;19.126;2022-08-01T05:45:24;23.70;46.70
7700;DHT22;3892;47.794;19.126;2022-08-01T05:47:51;23.80;46.60
7700;DHT22;3892;47.794;19.126;2022-08-01T05:50:18;23.80;46.80
7700;DHT22;3892;47.794;19.126;2022-08-01T05:52:46;23.80;46.50
7700;DHT22;3892;47.794;19.126;2022-08-01T05:55:13;23.90;46.60
7700;DHT22;3892;47.794;19.126;2022-08-01T05:57:40;24.00;46.80
7700;DHT22;3892;47.794;19.126;2022-08-01T06:00:08;24.00;46.50
7700;DHT22;3892;47.794;19.126;2022-08-01T06:02:40;24.00;46.50
7700;DHT22;3892;47.794;19.126;2022-08-01T06:05:09;24.00;46.20
7700;DHT22;3892;47.794;19.126;2022-08-01T06:07:36;24.10;46.20
7700;DHT22;3892;47.794;19.126;2022-08-01T06:10:07;24.10;46.10
7700;DHT22;3892;47.794;19.126;2022-08-01T06:12:34;24.20;46.20
7700;DHT22;3892;47.794;19.126;2022-08-01T06:15:01;24.20;46.00
7700;DHT22;3892;47.794;19.126;2022-08-01T06:17:28;24.30;46.10
7700;DHT22;3892;47.794;19.126;2022-08-01T06:19:55;24.30;46.10
7700;DHT22;3892;47.794;19.126;2022-08-01T06:22:22;24.40;46.30
7700;DHT22;3892;47.794;19.126;2022-08-01T06:24:49;24.40;46.20
7700;DHT22;3892;47.794;19.126;2022-08-01T06:27:17;24.40;45.70
7700;DHT22;3892;47.794;19.126;2022-08-01T06:29:44;24.50;46.00
7700;DHT22;3892;47.794;19.126;2022-08-01T06:32:11;24.50;45.70
7700;DHT22;3892;47.794;19.126;2022-08-01T06:34:38;24.60;45.50
7700;DHT22;3892;47.794;19.126;2022-08-01T06:37:04;24.60;45.40
7700;DHT22;3892;47.794;19.126;2022-08-01T06:39:31;24.60;45.20
7700;DHT22;3892;47.794;19.126;2022-08-01T06:41:58;24.70;45.50
7700;DHT22;3892;47.794;19.126;2022-08-01T06:44:26;24.70;45.50
7700;DHT22;3892;47.794;19.126;2022-08-01T06:46:53;24.80;45.40
7700;DHT22;3892;47.794;19.126;2022-08-01T06:49:20;24.80;45.40
7700;DHT22;3892;47.794;19.126;2022-08-01T06:51:47;24.90;45.50
7700;DHT22;3892;47.794;19.126;2022-08-01T06:54:14;25.00;45.30
7700;DHT22;3892;47.794;19.126;2022-08-01T06:56:41;25.10;45.30
7700;DHT22;3892;47.794;19.126;2022-08-01T06:59:08;25.20;45.20
7700;DHT22;3892;47.794;19.126;2022-08-01T07:01:36;25.30;45.30
7700;DHT22;3892;47.794;19.126;2022-08-01T07:04:03;25.30;45.90
7700;DHT22;3892;47.794;19.126;2022-08-01T07:06:31;25.30;45.20
7700;DHT22;3892;47.794;19.126;2022-08-01T07:08:57;25.40;45.00
7700;DHT22;3892;47.794;19.126;2022-08-01T07:11:26;25.50;45.10
7700;DHT22;3892;47.794;19.126;2022-08-01T07:13:53;25.60;45.10
7700;DHT22;3892;47.794;19.126;2022-08-01T07:16:20;25.70;45.00
7700;DHT22;3892;47.794;19.126;2022-08-01T07:18:48;25.70;44.90
7700;DHT22;3892;47.794;19.126;2022-08-01T07:21:15;25.70;45.30
7700;DHT22;3892;47.794;19.126;2022-08-01T07:23:42;25.80;44.70
7700;DHT22;3892;47.794;19.126;2022-08-01T07:26:09;25.80;44.50
7700;DHT22;3892;47.794;19.126;2022-08-01T07:28:36;25.90;44.90
7700;DHT22;3892;47.794;19.126;2022-08-01T07:31:03;26.00;44.60
7700;DHT22;3892;47.794;19.126;2022-08-01T07:33:30;26.00;44.50
7700;DHT22;3892;47.794;19.126;2022-08-01T07:35:58;26.10;45.20
7700;DHT22;3892;47.794;19.126;2022-08-01T07:38:25;26.10;44.40
7700;DHT22;3892;47.794;19.126;2022-08-01T07:40:52;26.20;43.90
7700;DHT22;3892;47.794;19.126;2022-08-01T07:43:20;26.30;44.30
7700;DHT22;3892;47.794;19.126;2022-08-01T07:45:47;26.30;43.90
7700;DHT22;3892;47.794;19.126;2022-08-01T07:48:14;26.40;43.60
7700;DHT22;3892;47.794;19.126;2022-08-01T07:50:41;26.50;43.50
7700;DHT22;3892;47.794;19.126;2022-08-01T07:53:09;26.50;42.50
7700;DHT22;3892;47.794;19.126;2022-08-01T07:55:36;26.60;42.40
7700;DHT22;3892;47.794;19.126;2022-08-01T07:58:03;26.60;42.00
7700;DHT22;3892;47.794;19.126;2022-08-01T08:00:30;26.70;42.00
7700;DHT22;3892;47.794;19.126;2022-08-01T08:02:57;26.70;42.20
7700;DHT22;3892;47.794;19.126;2022-08-01T08:05:25;26.80;42.10
7700;DHT22;3892;47.794;19.126;2022-08-01T08:07:51;26.80;42.10
7700;DHT22;3892;47.794;19.126;2022-08-01T08:10:20;26.80;42.80
7700;DHT22;3892;47.794;19.126;2022-08-01T08:12:47;26.90;42.60
7700;DHT22;3892;47.794;19.126;2022-08-01T08:15:14;27.00;42.60
7700;DHT22;3892;47.794;19.126;2022-08-01T08:17:41;27.10;41.60
7700;DHT22;3892;47.794;19.126;2022-08-01T08:20:09;27.20;42.00
7700;DHT22;3892;47.794;19.126;2022-08-01T08:22:36;27.20;41.90
7700;DHT22;3892;47.794;19.126;2022-08-01T08:25:05;27.50;41.90
7700;DHT22;3892;47.794;19.126;2022-08-01T08:27:34;27.50;41.00
7700;DHT22;3892;47.794;19.126;2022-08-01T08:30:01;27.60;41.40
7700;DHT22;3892;47.794;19.126;2022-08-01T08:32:28;27.70;41.80
7700;DHT22;3892;47.794;19.126;2022-08-01T08:34:57;27.60;41.50
7700;DHT22;3892;47.794;19.126;2022-08-01T08:37:23;27.60;40.90
7700;DHT22;3892;47.794;19.126;2022-08-01T08:39:50;27.60;41.50
7700;DHT22;3892;47.794;19.126;2022-08-01T08:42:18;27.70;41.60
7700;DHT22;3892;47.794;19.126;2022-08-01T08:44:46;27.70;41.60
7700;DHT22;3892;47.794;19.126;2022-08-01T08:47:14;27.70;41.60
7700;DHT22;3892;47.794;19.126;2022-08-01T08:49:43;27.60;41.40
7700;DHT22;3892;47.794;19.126;2022-08-01T08:52:10;27.60;41.60
7700;DHT22;3892;47.794;19.126;2022-08-01T08:54:38;27.60;41.80
7700;DHT22;3892;47.794;19.126;2022-08-01T08:57:07;27.50;41.60
7700;DHT22;3892;47.794;19.126;2022-08-01T08:59:36;27.50;41.60
7700;DHT22;3892;47.794;19.126;2022-08-01T09:02:05;27.50;41.60
7700;DHT22;3892;47.794;19.126;2022-08-01T09:04:35;27.50;41.60
7700;DHT22;3892;47.794;19.126;2022-08-01T09:07:04;27.50;41.70
7700;DHT22;3892;47.794;19.126;2022-08-01T09:09:31;27.40;41.40
7700;DHT22;3892;47.794;19.126;2022-08-01T09:11:58;27.40;41.60
7700;DHT22;3892;47.794;19.126;2022-08-01T09:14:26;27.30;41.60
7700;DHT22;3892;47.794;19.126;2022-08-01T09:17:00;27.30;42.00
7700;DHT22;3892;47.794;19.126;2022-08-01T09:19:36;27.30;41.50
7700;DHT22;3892;47.794;19.126;2022-08-01T09:22:04;27.30;41.60
7700;DHT22;3892;47.794;19.126;2022-08-01T09:24:32;27.30;41.30
7700;DHT22;3892;47.794;19.126;2022-08-01T09:27:00;27.30;42.40
7700;DHT22;3892;47.794;19.126;2022-08-01T09:29:29;27.40;41.80
7700;DHT22;3892;47.794;19.126;2022-08-01T09:31:57;27.40;41.90
7700;DHT22;3892;47.794;19.126;2022-08-01T09:34:26;27.50;41.80
7700;DHT22;3892;47.794;19.126;2022-08-01T09:36:56;27.50;41.90
7700;DHT22;3892;47.794;19.126;2022-08-01T09:39:25;27.50;42.00
7700;DHT22;3892;47.794;19.126;2022-08-01T09:41:53;27.50;42.00
7700;DHT22;3892;47.794;19.126;2022-08-01T09:44:26;27.60;41.90
7700;DHT22;3892;47.794;19.126;2022-08-01T09:47:03;27.70;42.30
7700;DHT22;3892;47.794;19.126;2022-08-01T09:49:32;27.70;41.60
7700;DHT22;3892;47.794;19.126;2022-08-01T09:52:11;27.70;41.60
7700;DHT22;3892;47.794;19.126;2022-08-01T09:54:39;27.80;41.70
7700;DHT22;3892;47.794;19.126;2022-08-01T09:57:11;27.90;41.50
7700;DHT22;3892;47.794;19.126;2022-08-01T09:59:40;27.90;41.50
7700;DHT22;3892;47.794;19.126;2022-08-01T10:02:09;27.90;41.20
7700;DHT22;3892;47.794;19.126;2022-08-01T10:04:46;28.00;41.70
7700;DHT22;3892;47.794;19.126;2022-08-01T10:07:14;28.00;41.40
7700;DHT22;3892;47.794;19.126;2022-08-01T10:09:42;28.10;41.10
7700;DHT22;3892;47.794;19.126;2022-08-01T10:12:12;28.10;41.70
7700;DHT22;3892;47.794;19.126;2022-08-01T10:14:40;28.10;41.30
7700;DHT22;3892;47.794;19.126;2022-08-01T10:17:12;28.10;41.40
7700;DHT22;3892;47.794;19.126;2022-08-01T10:19:41;28.20;41.80
7700;DHT22;3892;47.794;19.126;2022-08-01T10:22:09;28.10;41.90
7700;DHT22;3892;47.794;19.126;2022-08-01T10:24:39;28.20;41.40
7700;DHT22;3892;47.794;19.126;2022-08-01T10:27:07;28.20;41.50
7700;DHT22;3892;47.794;19.126;2022-08-01T10:29:40;28.20;40.70
7700;DHT22;3892;47.794;19.126;2022-08-01T10:32:09;28.30;40.60
7700;DHT22;3892;47.794;19.126;2022-08-01T10:34:37;28.30;40.50
7700;DHT22;3892;47.794;19.126;2022-08-01T10:37:05;28.40;40.30
7700;DHT22;3892;47.794;19.126;2022-08-01T10:39:33;28.40;40.20
7700;DHT22;3892;47.794;19.126;2022-08-01T10:42:01;28.50;40.20
7700;DHT22;3892;47.794;19.126;2022-08-01T10:44:30;28.50;39.40
7700;DHT22;3892;47.794;19.126;2022-08-01T10:47:02;28.60;40.80
7700;DHT22;3892;47.794;19.126;2022-08-01T10:49:34;28.60;39.90
7700;DHT22;3892;47.794;19.126;2022-08-01T10:52:03;28.60;39.70
7700;DHT22;3892;47.794;19.126;2022-08-01T10:54:38;28.70;40.00
7700;DHT22;3892;47.794;19.126;2022-08-01T10:57:07;28.70;40.20
7700;DHT22;3892;47.794;19.126;2022-08-01T10:59:48;28.80;40.10
7700;DHT22;3892;47.794;19.126;2022-08-01T11:02:26;28.80;40.10
7700;DHT22;3892;47.794;19.126;2022-08-01T11:04:56;29.00;39.70
7700;DHT22;3892;47.794;19.126;2022-08-01T11:07:38;29.00;40.30
7700;DHT22;3892;47.794;19.126;2022-08-01T11:10:15;29.00;39.60
7700;DHT22;3892;47.794;19.126;2022-08-01T11:12:46;29.10;39.80
7700;DHT22;3892;47.794;19.126;2022-08-01T11:15:25;29.10;40.00
7700;DHT22;3892;47.794;19.126;2022-08-01T11:17:54;29.20;40.90
7700;DHT22;3892;47.794;19.126;2022-08-01T11:20:23;29.20;39.70
7700;DHT22;3892;47.794;19.126;2022-08-01T11:23:24;29.20;39.80
7700;DHT22;3892;47.794;19.126;2022-08-01T11:26:12;29.30;38.90
7700;DHT22;3892;47.794;19.126;2022-08-01T11:28:43;29.30;38.60
7700;DHT22;3892;47.794;19.126;2022-08-01T11:31:27;29.40;38.20
7700;DHT22;3892;47.794;19.126;2022-08-01T11:33:55;29.40;39.10
7700;DHT22;3892;47.794;19.126;2022-08-01T11:36:22;29.50;38.10
7700;DHT22;3892;47.794;19.126;2022-08-01T11:41:33;29.60;37.50
7700;DHT22;3892;47.794;19.126;2022-08-01T11:44:06;29.70;37.70
7700;DHT22;3892;47.794;19.126;2022-08-01T11:46:55;29.70;37.60
7700;DHT22;3892;47.794;19.126;2022-08-01T11:49:31;29.80;37.50
7700;DHT22;3892;47.794;19.126;2022-08-01T11:52:02;29.90;37.20
7700;DHT22;3892;47.794;19.126;2022-08-01T11:54:30;30.00;37.30
7700;DHT22;3892;47.794;19.126;2022-08-01T11:56:59;30.10;36.90
7700;DHT22;3892;47.794;19.126;2022-08-01T11:59:28;30.10;37.00
7700;DHT22;3892;47.794;19.126;2022-08-01T12:02:01;30.10;37.10
7700;DHT22;3892;47.794;19.126;2022-08-01T12:04:50;30.10;36.50
7700;DHT22;3892;47.794;19.126;2022-08-01T12:07:18;30.20;36.30
7700;DHT22;3892;47.794;19.126;2022-08-01T12:09:45;30.20;35.80
7700;DHT22;3892;47.794;19.126;2022-08-01T12:12:15;30.20;35.90
7700;DHT22;3892;47.794;19.126;2022-08-01T12:14:45;30.20;36.70
7700;DHT22;3892;47.794;19.126;2022-08-01T12:17:12;30.30;36.80
7700;DHT22;3892;47.794;19.126;2022-08-01T12:19:40;30.40;36.80
7700;DHT22;3892;47.794;19.126;2022-08-01T12:22:09;30.40;37.60
7700;DHT22;3892;47.794;19.126;2022-08-01T12:24:37;30.70;37.90
7700;DHT22;3892;47.794;19.126;2022-08-01T12:27:05;30.90;37.50
7700;DHT22;3892;47.794;19.126;2022-08-01T12:29:34;31.00;36.00
7700;DHT22;3892;47.794;19.126;2022-08-01T12:32:04;31.20;36.00
7700;DHT22;3892;47.794;19.126;2022-08-01T12:34:31;31.30;35.70
7700;DHT22;3892;47.794;19.126;2022-08-01T12:37:01;31.50;35.20
7700;DHT22;3892;47.794;19.126;2022-08-01T12:39:35;31.60;34.50
7700;DHT22;3892;47.794;19.126;2022-08-01T12:42:06;31.80;34.90
7700;DHT22;3892;47.794;19.126;2022-08-01T12:44:33;32.00;34.70
7700;DHT22;3892;47.794;19.126;2022-08-01T12:47:03;32.20;34.90
7700;DHT22;3892;47.794;19.126;2022-08-01T12:49:31;32.30;35.20
7700;DHT22;3892;47.794;19.126;2022-08-01T12:51:59;32.30;34.30
7700;DHT22;3892;47.794;19.126;2022-08-01T12:54:26;32.40;34.10
7700;DHT22;3892;47.794;19.126;2022-08-01T12:56:53;32.50;34.70
7700;DHT22;3892;47.794;19.126;2022-08-01T12:59:21;32.50;33.80
7700;DHT22;3892;47.794;19.126;2022-08-01T13:01:49;32.60;34.40
7700;DHT22;3892;47.794;19.126;2022-08-01T13:04:17;32.70;34.80
7700;DHT22;3892;47.794;19.126;2022-08-01T13:06:45;32.70;33.70
7700;DHT22;3892;47.794;19.126;2022-08-01T13:09:12;32.80;33.50
7700;DHT22;3892;47.794;19.126;2022-08-01T13:11:39;32.70;33.30
7700;DHT22;3892;47.794;19.126;2022-08-01T13:14:06;32.70;34.80
7700;DHT22;3892;47.794;19.126;2022-08-01T13:16:45;32.70;34.60
7700;DHT22;3892;47.794;19.126;2022-08-01T13:19:13;32.70;34.50
7700;DHT22;3892;47.794;19.126;2022-08-01T13:21:53;32.60;33.50
7700;DHT22;3892;47.794;19.126;2022-08-01T13:24:25;32.70;33.50
7700;DHT22;3892;47.794;19.126;2022-08-01T13:26:54;32.80;33.00
7700;DHT22;3892;47.794;19.126;2022-08-01T13:29:30;32.80;33.40
7700;DHT22;3892;47.794;19.126;2022-08-01T13:31:57;32.80;33.90
7700;DHT22;3892;47.794;19.126;2022-08-01T13:34:31;32.90;34.10
7700;DHT22;3892;47.794;19.126;2022-08-01T13:37:00;33.00;33.20
7700;DHT22;3892;47.794;19.126;2022-08-01T13:39:28;33.10;32.90
7700;DHT22;3892;47.794;19.126;2022-08-01T13:42:08;33.10;32.50
7700;DHT22;3892;47.794;19.126;2022-08-01T13:44:35;33.10;32.60
7700;DHT22;3892;47.794;19.126;2022-08-01T13:47:03;33.20;32.40
7700;DHT22;3892;47.794;19.126;2022-08-01T13:49:30;33.20;32.80
7700;DHT22;3892;47.794;19.126;2022-08-01T13:51:59;33.30;32.50
7700;DHT22;3892;47.794;19.126;2022-08-01T13:54:26;33.40;32.90
7700;DHT22;3892;47.794;19.126;2022-08-01T13:56:53;33.40;32.60
7700;DHT22;3892;47.794;19.126;2022-08-01T13:59:21;33.40;32.20
7700;DHT22;3892;47.794;19.126;2022-08-01T14:01:48;33.50;32.70
7700;DHT22;3892;47.794;19.126;2022-08-01T14:04:15;33.50;32.90
7700;DHT22;3892;47.794;19.126;2022-08-01T14:06:42;33.50;32.90
7700;DHT22;3892;47.794;19.126;2022-08-01T14:09:10;33.50;33.20
7700;DHT22;3892;47.794;19.126;2022-08-01T14:11:38;33.60;32.90
7700;DHT22;3892;47.794;19.126;2022-08-01T14:14:05;33.60;32.50
7700;DHT22;3892;47.794;19.126;2022-08-01T14:16:31;33.60;32.30
7700;DHT22;3892;47.794;19.126;2022-08-01T14:18:58;33.60;32.70
7700;DHT22;3892;47.794;19.126;2022-08-01T14:21:25;33.60;32.20
7700;DHT22;3892;47.794;19.126;2022-08-01T14:23:52;33.60;32.70
7700;DHT22;3892;47.794;19.126;2022-08-01T14:26:20;33.60;31.70
7700;DHT22;3892;47.794;19.126;2022-08-01T14:28:47;33.60;31.50
7700;DHT22;3892;47.794;19.126;2022-08-01T14:31:14;33.60;31.40
7700;DHT22;3892;47.794;19.126;2022-08-01T14:33:41;33.70;31.90
7700;DHT22;3892;47.794;19.126;2022-08-01T14:36:08;33.60;31.90
7700;DHT22;3892;47.794;19.126;2022-08-01T14:38:35;33.50;31.90
7700;DHT22;3892;47.794;19.126;2022-08-01T14:41:02;33.50;31.90
7700;DHT22;3892;47.794;19.126;2022-08-01T14:43:30;33.50;33.20
7700;DHT22;3892;47.794;19.126;2022-08-01T14:45:58;33.50;33.90
7700;DHT22;3892;47.794;19.126;2022-08-01T14:48:25;33.40;33.00
7700;DHT22;3892;47.794;19.126;2022-08-01T14:50:52;33.40;33.70
7700;DHT22;3892;47.794;19.126;2022-08-01T14:53:19;33.40;33.80
7700;DHT22;3892;47.794;19.126;2022-08-01T14:55:46;33.40;33.30
7700;DHT22;3892;47.794;19.126;2022-08-01T14:58:13;33.40;33.20
7700;DHT22;3892;47.794;19.126;2022-08-01T15:00:41;33.40;33.40
7700;DHT22;3892;47.794;19.126;2022-08-01T15:03:08;33.40;34.50
7700;DHT22;3892;47.794;19.126;2022-08-01T15:05:35;33.40;34.10
7700;DHT22;3892;47.794;19.126;2022-08-01T15:08:02;33.50;33.50
7700;DHT22;3892;47.794;19.126;2022-08-01T15:10:30;33.50;33.40
7700;DHT22;3892;47.794;19.126;2022-08-01T15:12:58;33.50;32.50
7700;DHT22;3892;47.794;19.126;2022-08-01T15:15:27;33.50;32.60
7700;DHT22;3892;47.794;19.126;2022-08-01T15:17:55;33.50;32.50
7700;DHT22;3892;47.794;19.126;2022-08-01T15:20:22;33.40;32.20
7700;DHT22;3892;47.794;19.126;2022-08-01T15:22:50;33.40;32.10
7700;DHT22;3892;47.794;19.126;2022-08-01T15:25:17;33.40;32.10
7700;DHT22;3892;47.794;19.126;2022-08-01T15:27:44;33.30;32.00
7700;DHT22;3892;47.794;19.126;2022-08-01T15:30:11;33.20;32.20
7700;DHT22;3892;47.794;19.126;2022-08-01T15:32:38;33.20;31.50
7700;DHT22;3892;47.794;19.126;2022-08-01T15:35:07;33.20;32.20
7700;DHT22;3892;47.794;19.126;2022-08-01T15:37:36;33.10;32.30
7700;DHT22;3892;47.794;19.126;2022-08-01T15:40:04;33.10;32.50
7700;DHT22;3892;47.794;19.126;2022-08-01T15:42:31;33.10;32.40
7700;DHT22;3892;47.794;19.126;2022-08-01T15:44:58;33.10;32.90
7700;DHT22;3892;47.794;19.126;2022-08-01T15:47:25;33.10;32.10
7700;DHT22;3892;47.794;19.126;2022-08-01T15:49:52;33.10;32.60
7700;DHT22;3892;47.794;19.126;2022-08-01T15:52:20;33.10;32.60
7700;DHT22;3892;47.794;19.126;2022-08-01T15:54:47;33.00;32.90
7700;DHT22;3892;47.794;19.126;2022-08-01T15:57:14;33.10;33.00
7700;DHT22;3892;47.794;19.126;2022-08-01T15:59:40;33.00;32.70